Bearsville, NY (12409)

5:37 AM EDT on September 03, 2015 (GMT -0400)
Overlook Mountain | | Change Station
CLOSE
Current Station
Personal Weather Station
Location: Woodstock, NY
Elevation: 1407 ft
Nearby Weather Stations

Elev 1407 ft 42.06 °N, 74.12 °W | Updated 52 seconds ago

Partly Cloudy
Partly Cloudy
70.0 °F
Feels Like 70.0 °F
N
0.0
Wind Variable Wind from South

Today
High -- | Low -- °F
--% Chance of Precip.
Yesterday
High -- | Low -- °F
Precip. -- in
6:24 AM 7:27 PM
Waning Gibbous, 72% visible
Pressure 29.86 in
Visibility 6.0 miles
Clouds Clear
Dew Point 60 °F
Humidity 72%
Rainfall 0.00 in
Snow Depth Not available.
UV 0 out of 12
Pollen 9.30 out of 12
Air Quality Not available.
Flu Activity Not available.
METAR KPOU 030853Z 12003KT 6SM BR CLR 18/16 A2987 RMK AO2 SLP111 T01780161 55002
Pressure 29.86 in
Visibility 6.0 miles
Clouds Clear
Dew Point 60 °F
Humidity 72%
Rainfall 0.00 in
Snow Depth Not available.
UV 0 out of 12
Pollen 9.30 out of 12
Air Quality Not available.
Flu Activity Not available.
METAR KPOU 030853Z 12003KT 6SM BR CLR 18/16 A2987 RMK AO2 SLP111 T01780161 55002

10-Day Weather Forecast

×

Almanac

Astronomy

Sep. 03, 2015 Rise Set
Actual Time
Civil Twilight
Nautical Twilight
Astronomical Twilight
Moon
Length of Visible Light
Length of Day
Tomorrow will be .
, % of the Moon is Illuminated

Today's Extremes

State Highs State Lows

Community

WunderPhotos

Upload Photos

1,851,923 photos uploaded!

WunderBlogs® & News

Nearby

Air Quality

  Air Quality AQ Index Pollutant
Not available.

Snow Depth

Station Depth Elevation

Earthquake Activity

City Distance Mag. Time & Date
Minimum magnitude displayed is 2.5.

Coastal Water Temperatures

Place Temperature

Stations

Nearby Weather Stations

Station Location Temp. Windchill Dew Point Humidity Wind Precip. Elev Updated Type